Stotfold, United Kingdom
Current Conditions -  °F | °C
As of 8:50 AM on Friday 21 Nov 2014 (Local Time) from EGGW Reporting Station
Haze Haze  
Wind Chill: 39°   Ceiling: Unl
Heat Index: 43°   Visibility: 2.5mi
Dew Point: 43°   Wind: 7mph
Humidity: 100%   Direction: 100°E
Pressure: 30.09"   Gusts: NA
Location:  52.02°N, 0.23°W
Report Text: EGGW 210850Z 10006KT 4000 BR SCT009 06/06 Q1019
Loading
Personal Weather Stations






























Interactive Weather Map New forecast layout! Learn more

10-Day Weather Forecast

Advertisements
Track Severe Weather on mobile